Eminence, Kentucky
Current Conditions -  °F | °C
As of 7:53 AM on Saturday 22 Nov 2014 (Local Time) from KFFT Reporting Station
Overcast Overcast  
Wind Chill: 40°   Ceiling: 7500
Heat Index: 40°   Visibility: 10mi
Dew Point: 29°   Wind: 3mph
Humidity: 65%   Direction: 180°S
Pressure: 30.3"   Gusts: NA
Location:  38.37°N, 85.18°W
Report Text: KFFT 221253Z AUTO 18003KT 10SM OVC075 04/M02 A3030 RMK AO2 RAB23E32 SLP266 P0000 T00441017
Loading
Personal Weather Stations






























Interactive Weather Map New forecast layout! Learn more

10-Day Weather Forecast

Advertisements
Track Severe Weather on mobile